createdAt,value
2023-04-19T00:04:15.180Z,77.14
2023-04-19T00:14:18.261Z,77.89
2023-04-19T00:24:22.213Z,77.06
2023-04-19T00:34:24.736Z,78.26
2023-04-19T00:44:28.646Z,79.80
2023-04-19T00:54:31.381Z,78.58
2023-04-19T01:04:35.315Z,78.17
2023-04-19T01:14:37.817Z,78.21
2023-04-19T01:24:42.912Z,78.01
2023-04-19T01:34:45.470Z,80.18
2023-04-19T01:44:49.380Z,80.08
2023-04-19T01:54:51.961Z,79.26
2023-04-19T02:04:55.735Z,78.89
2023-04-19T02:14:59.406Z,79.07
2023-04-19T02:25:03.771Z,79.68
2023-04-19T02:35:06.457Z,79.16
2023-04-19T02:45:10.813Z,79.72
2023-04-19T02:55:13.199Z,79.17
2023-04-19T03:05:18.815Z,79.80
2023-04-19T03:15:22.210Z,78.85
2023-04-19T03:25:25.936Z,80.75
2023-04-19T03:35:29.342Z,80.65
2023-04-19T03:45:33.253Z,81.20
2023-04-19T03:55:35.676Z,81.06
2023-04-19T04:05:39.560Z,81.55
2023-04-19T04:15:42.059Z,82.20
2023-04-19T04:25:46.147Z,82.41
2023-04-19T04:35:48.614Z,82.23
2023-04-19T04:45:55.576Z,81.47
2023-04-19T04:55:58.129Z,80.87
2023-04-19T05:06:01.888Z,81.32
2023-04-19T05:16:04.418Z,82.19
2023-04-19T05:26:08.182Z,80.74
2023-04-19T05:36:10.652Z,80.78
2023-04-19T05:46:14.452Z,81.31
2023-04-19T05:56:16.913Z,81.74
2023-04-19T06:06:21.459Z,80.19
2023-04-19T06:16:23.930Z,81.93
2023-04-19T06:26:27.903Z,80.46
2023-04-19T06:36:30.324Z,80.23
2023-04-19T06:46:34.097Z,79.93
2023-04-19T06:56:45.583Z,78.72
2023-04-19T07:06:50.673Z,78.36
2023-04-19T07:16:53.857Z,77.21
2023-04-19T07:26:57.614Z,77.86
2023-04-19T07:36:59.988Z,76.49
2023-04-19T07:47:04.531Z,76.42
2023-04-19T07:57:07.023Z,75.33
2023-04-19T08:07:11.152Z,74.94
2023-04-19T08:17:25.647Z,74.08
2023-04-19T08:27:32.038Z,73.02
2023-04-19T08:37:34.430Z,72.22
2023-04-19T08:47:51.788Z,71.01
2023-04-19T08:57:59.525Z,72.00
2023-04-19T09:08:21.873Z,69.86
2023-04-19T09:18:25.512Z,70.51
2023-04-19T09:28:29.521Z,69.76
2023-04-19T09:38:32.093Z,69.92
2023-04-19T09:48:37.055Z,70.30
2023-04-19T09:58:51.347Z,68.65
2023-04-19T10:09:01.705Z,66.61
2023-04-19T10:19:05.198Z,65.54
2023-04-19T10:29:09.148Z,63.01
2023-04-19T10:39:32.111Z,63.62
2023-04-19T10:49:45.107Z,60.95
2023-04-19T11:00:08.028Z,60.66
2023-04-19T11:10:12.592Z,60.95
2023-04-19T11:20:15.454Z,59.36
2023-04-19T11:30:21.547Z,59.45
2023-04-19T11:40:25.934Z,61.75
2023-04-19T11:50:33.281Z,60.83
2023-04-19T12:00:36.157Z,60.39
2023-04-19T12:10:39.972Z,62.62
2023-04-19T12:20:45.345Z,62.89
2023-04-19T12:30:49.081Z,64.34
2023-04-19T12:40:51.662Z,64.95
2023-04-19T12:50:55.625Z,66.81
2023-04-19T13:00:58.027Z,69.00
2023-04-19T13:11:02.808Z,69.69
2023-04-19T13:21:07.455Z,70.51
2023-04-19T13:31:12.376Z,73.66
2023-04-19T13:41:14.798Z,77.68
2023-04-19T13:51:18.509Z,79.91
2023-04-19T14:01:20.996Z,81.47
2023-04-19T14:11:25.875Z,83.28
2023-04-19T14:21:28.466Z,86.24
2023-04-19T14:31:32.400Z,83.56
2023-04-19T14:41:34.926Z,83.57
2023-04-19T14:51:38.702Z,85.77
2023-04-19T15:01:41.120Z,85.50
2023-04-19T15:11:45.838Z,82.57
2023-04-19T15:21:48.281Z,82.67
2023-04-19T15:31:52.130Z,84.17
2023-04-19T15:41:54.798Z,82.23
2023-04-19T15:51:58.539Z,82.83
2023-04-19T16:02:01.061Z,80.35
2023-04-19T16:12:04.931Z,79.28
2023-04-19T16:22:07.353Z,80.48
2023-04-19T16:32:12.515Z,80.02
2023-04-19T16:42:15.409Z,79.48
2023-04-19T16:52:19.257Z,78.04
2023-04-19T17:02:25.602Z,79.08
2023-04-19T17:12:29.660Z,79.55
2023-04-19T17:22:32.168Z,79.70
2023-04-19T17:32:36.355Z,80.51
2023-04-19T17:42:38.880Z,79.74
2023-04-19T17:52:42.876Z,80.21
2023-04-19T18:02:45.640Z,79.82
2023-04-19T18:12:49.930Z,81.06
2023-04-19T18:22:52.448Z,80.65
2023-04-19T18:32:56.371Z,80.82
2023-04-19T18:42:59.162Z,81.16
2023-04-19T18:53:03.316Z,80.59
2023-04-19T19:03:12.094Z,82.24
2023-04-19T19:13:28.333Z,81.08
2023-04-19T19:33:40.388Z,77.48
2023-04-19T19:43:43.469Z,80.69
2023-04-19T19:53:47.377Z,70.36
2023-04-19T20:03:53.653Z,71.57
2023-04-19T20:13:57.659Z,70.77
2023-04-19T20:24:00.245Z,69.46
2023-04-19T20:34:04.388Z,68.87
2023-04-19T20:44:06.867Z,69.03
2023-04-19T20:54:10.657Z,69.81
2023-04-19T21:04:16.795Z,67.38
2023-04-19T21:14:20.701Z,67.09
2023-04-19T21:24:23.603Z,66.68
2023-04-19T21:34:27.456Z,65.31
2023-04-19T21:44:33.463Z,63.25
2023-04-19T21:54:37.303Z,62.03
2023-04-19T22:04:44.727Z,77.38
2023-04-19T22:14:49.475Z,59.76
2023-04-19T22:24:57.001Z,54.86
2023-04-19T22:35:01.910Z,58.76
2023-04-19T22:45:04.641Z,60.17
2023-04-19T22:55:10.069Z,61.24
2023-04-19T23:05:12.529Z,60.94
2023-04-19T23:15:16.460Z,60.93
2023-04-19T23:25:18.839Z,60.45
2023-04-19T23:35:22.698Z,62.90
2023-04-19T23:45:25.441Z,63.48
2023-04-19T23:55:29.210Z,63.54
